Time;durP1;ratioP1;P1;durP2;ratioP2;P2;SDS_P1;SDS_P2;PMS_P1;PMS_P2;Temp;Humidity;BMP_temperature;BMP_pressure;BME280_temperature;BME280_humidity;BME280_pressure;Samples;Min_cycle;Max_cycle;Signal;HPM_P1;HPM_P2
2023/10/26 00:01:42;;;;;;;1.50;0.20;;;11.80;99.90;;;;;;5138372;27;20422;-58
2023/10/26 00:04:09;;;;;;;0.40;0.20;;;11.80;99.90;;;;;;5138978;27;20418;-59
2023/10/26 00:06:36;;;;;;;0.35;0.20;;;11.80;99.90;;;;;;5138023;27;20530;-59
2023/10/26 00:09:03;;;;;;;0.70;0.20;;;11.90;99.90;;;;;;5137782;27;20482;-59
2023/10/26 00:11:32;;;;;;;0.50;0.20;;;11.90;99.90;;;;;;5138820;27;20418;-59
2023/10/26 00:13:59;;;;;;;0.40;0.20;;;11.90;99.90;;;;;;5138407;27;20422;-59
2023/10/26 00:16:25;;;;;;;0.50;0.20;;;11.90;99.90;;;;;;5138899;27;20422;-60
2023/10/26 00:18:52;;;;;;;0.40;0.20;;;11.90;99.90;;;;;;5138901;27;20418;-59
2023/10/26 00:21:19;;;;;;;1.00;0.20;;;12.00;99.90;;;;;;5138824;27;20467;-58
2023/10/26 00:23:45;;;;;;;0.50;0.20;;;12.00;99.90;;;;;;5138564;27;20415;-59
2023/10/26 00:26:12;;;;;;;0.30;0.10;;;12.00;99.90;;;;;;5137946;27;20894;-58
2023/10/26 00:28:41;;;;;;;1.40;0.10;;;12.00;99.90;;;;;;5137531;27;20463;-59
2023/10/26 00:31:08;;;;;;;0.50;0.10;;;12.00;99.90;;;;;;5138366;27;20486;-59
2023/10/26 00:33:35;;;;;;;0.70;0.20;;;12.00;99.90;;;;;;5137992;27;20433;-60
2023/10/26 00:36:02;;;;;;;0.35;0.10;;;12.00;99.90;;;;;;5137156;27;20418;-59
2023/10/26 00:38:29;;;;;;;0.40;0.20;;;12.00;99.90;;;;;;5138134;27;20417;-59
2023/10/26 00:40:55;;;;;;;1.00;0.20;;;12.00;99.90;;;;;;5138252;27;20826;-60
2023/10/26 00:43:24;;;;;;;0.57;0.20;;;11.90;99.90;;;;;;5138330;27;20422;-59
2023/10/26 00:45:53;;;;;;;0.40;0.20;;;11.90;99.90;;;;;;5137928;27;20422;-60
2023/10/26 00:48:21;;;;;;;0.40;0.20;;;11.90;99.90;;;;;;5137371;27;20418;-59
2023/10/26 00:50:48;;;;;;;0.60;0.20;;;11.90;99.90;;;;;;5138489;27;20475;-59
2023/10/26 00:53:16;;;;;;;0.50;0.20;;;11.80;99.90;;;;;;5137962;27;20782;-59
2023/10/26 00:55:46;;;;;;;0.40;0.20;;;11.80;99.90;;;;;;5136840;27;20474;-61
2023/10/26 00:58:13;;;;;;;0.43;0.20;;;11.70;99.90;;;;;;5138232;27;20447;-60
2023/10/26 01:00:40;;;;;;;0.40;0.20;;;11.60;99.90;;;;;;5137700;27;20414;-60
2023/10/26 01:03:08;;;;;;;0.40;0.20;;;11.60;99.90;;;;;;5137852;27;20472;-60
2023/10/26 01:05:35;;;;;;;0.55;0.10;;;11.60;99.90;;;;;;5137429;27;20422;-60
2023/10/26 01:08:02;;;;;;;0.40;0.20;;;11.60;99.90;;;;;;5136750;27;20460;-60
2023/10/26 01:10:29;;;;;;;0.70;0.20;;;11.60;99.90;;;;;;5138133;27;20422;-60
2023/10/26 01:12:56;;;;;;;0.38;0.20;;;11.60;99.90;;;;;;5136563;27;20434;-60
2023/10/26 01:15:24;;;;;;;0.50;0.20;;;11.60;99.90;;;;;;5137428;27;20483;-60
2023/10/26 01:17:51;;;;;;;0.70;0.20;;;11.50;99.90;;;;;;5137206;27;20418;-60
2023/10/26 01:20:20;;;;;;;0.30;0.20;;;11.50;99.90;;;;;;5137421;27;20414;-60
2023/10/26 01:22:48;;;;;;;1.98;0.20;;;11.40;99.90;;;;;;5137047;27;20442;-60
2023/10/26 01:25:15;;;;;;;0.40;0.20;;;11.40;99.90;;;;;;5137368;27;20418;-59
2023/10/26 01:27:42;;;;;;;0.70;0.20;;;11.40;99.90;;;;;;5137273;27;20418;-59
2023/10/26 01:30:10;;;;;;;3.10;0.20;;;11.40;99.90;;;;;;5137871;27;20418;-60
2023/10/26 01:32:37;;;;;;;0.60;0.20;;;11.30;99.90;;;;;;5137173;27;20489;-60
2023/10/26 01:35:05;;;;;;;0.60;0.20;;;11.20;99.90;;;;;;5136964;27;20453;-59
2023/10/26 01:37:32;;;;;;;1.25;0.20;;;11.20;99.90;;;;;;5136572;27;20418;-60
2023/10/26 01:40:00;;;;;;;0.50;0.20;;;11.20;99.90;;;;;;5137360;27;20426;-59
2023/10/26 01:42:27;;;;;;;0.50;0.20;;;11.20;99.90;;;;;;5137225;27;20427;-59
2023/10/26 01:44:55;;;;;;;0.47;0.20;;;11.10;99.90;;;;;;5136859;27;20471;-60
2023/10/26 01:47:22;;;;;;;0.50;0.20;;;11.10;99.90;;;;;;5136504;27;20781;-60
2023/10/26 01:49:49;;;;;;;0.50;0.20;;;11.10;99.90;;;;;;5137028;27;20464;-60
2023/10/26 01:52:16;;;;;;;0.50;0.20;;;11.00;99.90;;;;;;5136797;27;20414;-59
2023/10/26 01:54:43;;;;;;;0.40;0.20;;;10.90;99.90;;;;;;5136881;27;20487;-60
2023/10/26 01:57:11;;;;;;;0.50;0.20;;;10.90;99.90;;;;;;5136506;27;20418;-60
2023/10/26 01:59:39;;;;;;;0.70;0.20;;;10.80;99.90;;;;;;5136767;27;20829;-60
2023/10/26 02:02:06;;;;;;;0.97;0.30;;;10.80;99.90;;;;;;5136241;27;20424;-60
2023/10/26 02:04:33;;;;;;;0.40;0.20;;;10.70;99.90;;;;;;5136777;27;20464;-61
2023/10/26 02:07:00;;;;;;;0.40;0.20;;;10.70;99.90;;;;;;5136517;27;20502;-60
2023/10/26 02:09:27;;;;;;;1.30;0.20;;;10.70;99.90;;;;;;5136666;27;20912;-61
2023/10/26 02:11:54;;;;;;;1.10;0.20;;;10.70;99.90;;;;;;5136254;27;20422;-61
2023/10/26 02:14:23;;;;;;;0.50;0.20;;;10.70;99.90;;;;;;5135996;27;20479;-60
2023/10/26 02:16:50;;;;;;;1.30;0.20;;;10.70;99.90;;;;;;5136260;27;20505;-60
2023/10/26 02:19:17;;;;;;;0.80;0.20;;;10.80;99.90;;;;;;5136345;27;20418;-60
2023/10/26 02:21:44;;;;;;;0.40;0.20;;;10.80;99.90;;;;;;5136916;27;20846;-60
2023/10/26 02:24:11;;;;;;;0.85;0.30;;;10.80;99.90;;;;;;5135687;27;20426;-60
2023/10/26 02:26:38;;;;;;;0.50;0.20;;;10.80;99.90;;;;;;5135986;27;20468;-61
2023/10/26 02:29:05;;;;;;;0.70;0.20;;;10.80;99.90;;;;;;5136040;27;20475;-61
2023/10/26 02:31:33;;;;;;;0.60;0.20;;;10.80;99.90;;;;;;5136140;27;20415;-61
2023/10/26 02:34:00;;;;;;;0.50;0.20;;;10.70;99.90;;;;;;5136719;27;20487;-61
2023/10/26 02:36:27;;;;;;;0.30;0.20;;;10.70;99.90;;;;;;5136413;27;20478;-61
2023/10/26 02:38:54;;;;;;;0.50;0.20;;;10.70;99.90;;;;;;5135904;27;20787;-59
2023/10/26 02:41:21;;;;;;;0.40;0.20;;;10.70;99.90;;;;;;5136418;27;20406;-60
2023/10/26 02:43:48;;;;;;;0.30;0.10;;;10.70;99.90;;;;;;5136227;27;20418;-60
2023/10/26 02:46:15;;;;;;;0.50;0.20;;;10.70;99.90;;;;;;5136465;27;20418;-60
2023/10/26 02:48:43;;;;;;;0.30;0.10;;;10.60;99.90;;;;;;5135873;27;20418;-60
2023/10/26 02:51:10;;;;;;;0.43;0.20;;;10.60;99.90;;;;;;5135606;27;20486;-59
2023/10/26 02:53:37;;;;;;;0.40;0.20;;;10.60;99.90;;;;;;5136018;27;20710;-60
2023/10/26 02:56:05;;;;;;;0.30;0.10;;;10.60;99.90;;;;;;5135940;27;20419;-60
2023/10/26 02:58:32;;;;;;;1.10;0.20;;;10.60;99.90;;;;;;5135770;27;20699;-61
2023/10/26 03:00:59;;;;;;;1.10;0.20;;;10.60;99.90;;;;;;5136363;27;20451;-61
2023/10/26 03:03:26;;;;;;;0.50;0.20;;;10.60;99.90;;;;;;5135599;27;20433;-60
2023/10/26 03:05:54;;;;;;;0.38;0.20;;;10.70;99.90;;;;;;5135205;27;20478;-60
2023/10/26 03:08:21;;;;;;;0.80;0.20;;;10.60;99.90;;;;;;5135659;27;20410;-61
2023/10/26 03:10:48;;;;;;;0.60;0.20;;;10.60;99.90;;;;;;5135421;27;20406;-62
2023/10/26 03:13:15;;;;;;;0.60;0.20;;;10.60;99.90;;;;;;5135563;27;20426;-61
2023/10/26 03:15:42;;;;;;;0.50;0.20;;;10.60;99.90;;;;;;5135254;27;20845;-61
2023/10/26 03:18:09;;;;;;;1.80;0.20;;;10.60;99.90;;;;;;5135124;27;20494;-60
2023/10/26 03:20:37;;;;;;;0.80;0.20;;;10.70;99.90;;;;;;5135103;27;20846;-61
2023/10/26 03:23:05;;;;;;;0.30;0.10;;;10.60;99.90;;;;;;5135513;27;20414;-60
2023/10/26 03:25:32;;;;;;;0.30;0.20;;;10.60;99.90;;;;;;5135400;27;20478;-62
2023/10/26 03:28:00;;;;;;;0.30;0.20;;;10.60;99.90;;;;;;5135492;27;20849;-60
2023/10/26 03:30:27;;;;;;;0.90;0.20;;;10.60;99.90;;;;;;5135247;27;20419;-61
2023/10/26 03:32:54;;;;;;;0.45;0.20;;;10.60;99.90;;;;;;5134709;27;20418;-60
2023/10/26 03:35:21;;;;;;;0.50;0.20;;;10.60;99.90;;;;;;5134963;27;20427;-60
2023/10/26 03:37:48;;;;;;;0.40;0.20;;;10.60;99.90;;;;;;5137470;27;20418;-60
2023/10/26 03:40:17;;;;;;;0.50;0.20;;;10.60;99.90;;;;;;5137113;27;20475;-62
2023/10/26 03:42:44;;;;;;;0.32;0.20;;;10.60;99.90;;;;;;5138755;27;21028;-59
2023/10/26 03:45:12;;;;;;;1.50;0.20;;;10.60;99.90;;;;;;5138956;27;20451;-60
2023/10/26 03:47:39;;;;;;;0.40;0.20;;;10.50;99.90;;;;;;5137723;27;20837;-60
2023/10/26 03:50:07;;;;;;;0.53;0.20;;;10.50;99.90;;;;;;5137593;27;20414;-61
2023/10/26 03:52:34;;;;;;;1.20;0.20;;;10.40;99.90;;;;;;5137307;27;20473;-59
2023/10/26 03:55:02;;;;;;;0.50;0.20;;;10.40;99.90;;;;;;5137334;27;20844;-60
2023/10/26 03:57:30;;;;;;;0.43;0.20;;;10.40;99.90;;;;;;5137053;27;20714;-60
2023/10/26 03:59:57;;;;;;;0.50;0.20;;;10.30;99.90;;;;;;5135952;27;20426;-60
2023/10/26 04:02:24;;;;;;;0.40;0.20;;;10.40;99.90;;;;;;5136951;27;20481;-60
2023/10/26 04:04:51;;;;;;;0.40;0.20;;;10.30;99.90;;;;;;5135468;27;20460;-61
2023/10/26 04:07:18;;;;;;;0.30;0.20;;;10.30;99.90;;;;;;5136120;27;20475;-60
2023/10/26 04:09:45;;;;;;;1.10;0.20;;;10.30;99.90;;;;;;5136547;27;20494;-61
2023/10/26 04:12:13;;;;;;;0.40;0.20;;;10.30;99.90;;;;;;5136747;27;20418;-60
2023/10/26 04:14:41;;;;;;;0.37;0.20;;;10.30;99.90;;;;;;5135867;27;20430;-60
2023/10/26 04:17:08;;;;;;;0.80;0.20;;;10.30;99.90;;;;;;5136509;27;20407;-59
2023/10/26 04:19:35;;;;;;;0.40;0.20;;;10.30;99.90;;;;;;5135568;27;20415;-59
2023/10/26 04:22:05;;;;;;;0.90;0.30;;;10.30;99.90;;;;;;5136827;27;20802;-58
2023/10/26 04:24:32;;;;;;;0.40;0.20;;;10.40;99.90;;;;;;5136856;27;20425;-62
2023/10/26 04:26:59;;;;;;;0.40;0.20;;;10.40;99.90;;;;;;5137382;27;20491;-62
2023/10/26 04:29:26;;;;;;;2.10;0.20;;;10.40;99.90;;;;;;5136500;27;20434;-62
2023/10/26 04:31:54;;;;;;;0.40;0.20;;;10.40;99.90;;;;;;5136328;27;20410;-62
2023/10/26 04:34:21;;;;;;;0.47;0.20;;;10.40;99.90;;;;;;5137684;27;20434;-61
2023/10/26 04:36:48;;;;;;;0.40;0.20;;;10.40;99.90;;;;;;5136682;27;20487;-62
2023/10/26 04:39:15;;;;;;;0.60;0.20;;;10.40;99.90;;;;;;5135041;27;20422;-62
2023/10/26 04:41:43;;;;;;;0.70;0.20;;;10.40;99.90;;;;;;5135566;27;20418;-63
2023/10/26 04:44:11;;;;;;;0.40;0.20;;;10.50;99.90;;;;;;5136622;27;20417;-63
2023/10/26 04:46:38;;;;;;;0.40;0.10;;;10.50;99.90;;;;;;5136849;27;20784;-63
2023/10/26 04:49:07;;;;;;;0.30;0.10;;;10.50;99.90;;;;;;5133587;27;20771;-64
2023/10/26 04:51:34;;;;;;;1.50;0.20;;;10.50;99.90;;;;;;5136360;27;20422;-63
2023/10/26 04:54:01;;;;;;;0.40;0.20;;;10.60;99.90;;;;;;5130447;27;20435;-63
2023/10/26 04:56:28;;;;;;;0.47;0.20;;;10.60;99.90;;;;;;5119830;27;20616;-64
2023/10/26 04:58:55;;;;;;;0.40;0.20;;;10.60;99.90;;;;;;5128545;27;20732;-64
2023/10/26 05:01:22;;;;;;;0.50;0.20;;;10.60;99.90;;;;;;5120307;27;20422;-62
2023/10/26 05:03:49;;;;;;;0.80;0.20;;;10.50;99.90;;;;;;5135457;27;20922;-64
2023/10/26 05:06:18;;;;;;;0.30;0.17;;;10.50;99.90;;;;;;5126428;27;20420;-63
2023/10/26 05:08:46;;;;;;;0.40;0.20;;;10.50;99.90;;;;;;5114796;28;20419;-64
2023/10/26 05:11:13;;;;;;;0.50;0.20;;;10.50;99.90;;;;;;5115300;28;20447;-63
2023/10/26 05:13:42;;;;;;;1.10;0.20;;;10.50;99.90;;;;;;5114837;28;20819;-63
2023/10/26 05:16:09;;;;;;;1.20;0.20;;;10.50;99.90;;;;;;5113981;28;20911;-63
2023/10/26 05:18:36;;;;;;;0.50;0.20;;;10.60;99.90;;;;;;5115323;28;20477;-63
2023/10/26 05:21:03;;;;;;;0.70;0.20;;;10.60;99.90;;;;;;5115806;28;20476;-63
2023/10/26 05:23:31;;;;;;;0.50;0.20;;;10.60;99.90;;;;;;5113754;28;20416;-63
2023/10/26 05:25:58;;;;;;;0.40;0.20;;;10.50;99.90;;;;;;5113063;28;20859;-63
2023/10/26 05:28:25;;;;;;;1.40;0.20;;;10.60;99.90;;;;;;5112534;28;20424;-63
2023/10/26 05:30:52;;;;;;;0.50;0.20;;;10.50;99.90;;;;;;5114360;28;20416;-63
2023/10/26 05:33:19;;;;;;;0.73;0.30;;;10.50;99.90;;;;;;5112979;28;20924;-63
2023/10/26 05:35:46;;;;;;;0.40;0.20;;;10.50;99.90;;;;;;5113579;28;20432;-63
2023/10/26 05:38:15;;;;;;;0.80;0.20;;;10.50;99.90;;;;;;5113833;28;20416;-63
2023/10/26 05:40:50;;;;;;;1.00;0.30;;;10.50;99.90;;;;;;5114776;28;20416;-63
2023/10/26 05:43:17;;;;;;;0.60;0.20;;;10.50;99.90;;;;;;5114761;28;20537;-63
2023/10/26 05:45:44;;;;;;;1.10;0.22;;;10.50;99.90;;;;;;5115369;28;20408;-63
2023/10/26 05:48:11;;;;;;;1.00;0.30;;;10.60;99.90;;;;;;5115041;28;20424;-63
2023/10/26 05:50:41;;;;;;;0.70;0.30;;;10.60;99.90;;;;;;5115637;27;20427;-63
2023/10/26 05:53:08;;;;;;;0.70;0.20;;;10.60;99.90;;;;;;5132212;27;20418;-63
2023/10/26 05:55:35;;;;;;;1.20;0.20;;;10.70;99.90;;;;;;5135236;27;20498;-63
2023/10/26 05:58:04;;;;;;;0.50;0.30;;;10.70;99.90;;;;;;5121349;27;20428;-63
2023/10/26 06:00:31;;;;;;;1.20;0.20;;;10.70;99.90;;;;;;5116246;27;20462;-63
2023/10/26 06:02:59;;;;;;;0.40;0.20;;;10.80;99.90;;;;;;5132269;27;20422;-63
2023/10/26 06:05:26;;;;;;;0.40;0.20;;;10.80;99.90;;;;;;5118629;27;20426;-63
2023/10/26 06:07:53;;;;;;;1.42;0.20;;;10.80;99.90;;;;;;5123927;27;20493;-63
2023/10/26 06:10:20;;;;;;;1.60;0.20;;;10.80;99.90;;;;;;5130493;27;20526;-63
2023/10/26 06:12:47;;;;;;;0.90;0.20;;;10.80;99.90;;;;;;5130711;27;20783;-63
2023/10/26 06:15:16;;;;;;;0.90;0.30;;;10.90;99.90;;;;;;5131676;27;20430;-64
2023/10/26 06:17:42;;;;;;;0.40;0.20;;;10.90;99.90;;;;;;5132851;27;20487;-64
2023/10/26 06:20:11;;;;;;;0.50;0.25;;;10.90;99.90;;;;;;5133517;27;20780;-63
2023/10/26 06:22:37;;;;;;;1.00;0.25;;;11.00;99.90;;;;;;5131458;27;20418;-60
2023/10/26 06:25:06;;;;;;;1.10;0.20;;;11.10;99.90;;;;;;5129106;27;20426;-59
2023/10/26 06:27:33;;;;;;;0.50;0.30;;;11.10;99.90;;;;;;5131295;27;20505;-60
2023/10/26 06:30:00;;;;;;;0.82;0.40;;;11.10;99.90;;;;;;5129956;27;20422;-59
2023/10/26 06:32:28;;;;;;;0.43;0.20;;;11.10;99.90;;;;;;5128775;27;20837;-59
2023/10/26 06:34:56;;;;;;;0.40;0.20;;;11.00;99.90;;;;;;5127188;27;20627;-59
2023/10/26 06:37:24;;;;;;;0.60;0.20;;;10.90;99.90;;;;;;5128616;27;20513;-59
2023/10/26 06:39:51;;;;;;;0.50;0.30;;;11.00;99.90;;;;;;5129958;27;20422;-59
2023/10/26 06:42:17;;;;;;;0.50;0.20;;;11.00;99.90;;;;;;5131060;27;20898;-58
2023/10/26 06:44:44;;;;;;;0.53;0.30;;;11.00;99.90;;;;;;5126038;27;20486;-58
2023/10/26 06:47:11;;;;;;;0.50;0.30;;;11.00;99.90;;;;;;5118288;27;20416;-59
2023/10/26 06:49:41;;;;;;;0.90;0.30;;;11.00;99.90;;;;;;5115061;27;20427;-58
2023/10/26 06:52:08;;;;;;;0.60;0.30;;;11.10;99.90;;;;;;5132186;27;20460;-59
2023/10/26 06:54:35;;;;;;;0.70;0.30;;;11.00;99.90;;;;;;5131035;27;20418;-57
2023/10/26 06:57:02;;;;;;;0.50;0.22;;;11.10;99.90;;;;;;5122930;27;20424;-55
2023/10/26 06:59:29;;;;;;;1.00;0.30;;;11.10;99.90;;;;;;5113003;28;20416;-53
2023/10/26 07:01:56;;;;;;;0.70;0.30;;;11.10;99.90;;;;;;5121698;27;20853;-54
2023/10/26 07:04:22;;;;;;;0.60;0.30;;;11.10;99.90;;;;;;5131961;27;20482;-52
2023/10/26 07:06:51;;;;;;;0.60;0.30;;;11.20;99.90;;;;;;5133789;27;20479;-57
2023/10/26 07:09:18;;;;;;;1.00;0.30;;;11.20;99.90;;;;;;5131759;27;20852;-56
2023/10/26 07:11:45;;;;;;;1.42;0.30;;;11.30;99.90;;;;;;5130913;27;20446;-55
2023/10/26 07:14:12;;;;;;;1.70;0.20;;;11.40;99.90;;;;;;5128580;27;20720;-54
2023/10/26 07:16:39;;;;;;;1.10;0.30;;;11.40;99.90;;;;;;5136398;27;20422;-56
2023/10/26 07:19:06;;;;;;;2.70;0.30;;;11.50;99.90;;;;;;5129431;27;20811;-57
2023/10/26 07:21:33;;;;;;;0.50;0.30;;;11.50;99.90;;;;;;5134587;27;20483;-56
2023/10/26 07:24:02;;;;;;;0.80;0.30;;;11.50;99.90;;;;;;5134083;27;20426;-56
2023/10/26 07:26:29;;;;;;;0.60;0.30;;;11.50;99.90;;;;;;5118757;27;20419;-55
2023/10/26 07:28:57;;;;;;;0.57;0.30;;;11.50;99.90;;;;;;5125971;27;20483;-51
2023/10/26 07:31:24;;;;;;;0.73;0.30;;;11.60;99.90;;;;;;5130942;27;20460;-53
2023/10/26 07:33:51;;;;;;;0.80;0.30;;;11.60;99.90;;;;;;5130095;27;20456;-55
2023/10/26 07:36:18;;;;;;;0.70;0.40;;;11.60;99.90;;;;;;5130562;27;20426;-55
2023/10/26 07:38:46;;;;;;;0.60;0.30;;;11.60;99.90;;;;;;5134360;27;20520;-56
2023/10/26 07:41:15;;;;;;;0.60;0.30;;;11.60;99.90;;;;;;5134580;27;20418;-55
2023/10/26 07:43:42;;;;;;;0.70;0.40;;;11.60;99.90;;;;;;5134040;27;20422;-54
2023/10/26 07:46:09;;;;;;;1.30;0.30;;;11.60;99.90;;;;;;5134329;27;20422;-55
2023/10/26 07:48:36;;;;;;;2.25;0.30;;;11.60;99.90;;;;;;5132110;27;20466;-53
2023/10/26 07:51:04;;;;;;;0.73;0.30;;;11.60;99.90;;;;;;5120250;27;20451;-52
2023/10/26 07:53:31;;;;;;;0.70;0.30;;;11.70;99.90;;;;;;5131941;27;20438;-56
2023/10/26 07:55:58;;;;;;;0.70;0.30;;;11.60;99.90;;;;;;5134642;27;20503;-57
2023/10/26 07:58:27;;;;;;;0.50;0.30;;;11.70;99.90;;;;;;5133169;27;20446;-55
2023/10/26 08:00:55;;;;;;;0.60;0.25;;;11.70;99.90;;;;;;5135116;27;20442;-57
2023/10/26 08:03:24;;;;;;;0.50;0.30;;;11.70;99.90;;;;;;5136777;27;20454;-57
2023/10/26 08:05:59;;;;;;;0.50;0.30;;;11.70;99.90;;;;;;5131967;27;20861;-58
2023/10/26 08:08:26;;;;;;;0.80;0.30;;;11.80;99.90;;;;;;5124263;27;20431;-57
2023/10/26 08:10:53;;;;;;;1.50;0.30;;;11.80;99.90;;;;;;5131044;27;20438;-58
2023/10/26 08:13:19;;;;;;;0.50;0.25;;;11.80;99.90;;;;;;5134151;27;20764;-58
2023/10/26 08:15:48;;;;;;;0.60;0.25;;;11.90;99.90;;;;;;5133292;27;20479;-59
2023/10/26 08:18:15;;;;;;;1.15;0.30;;;12.00;99.90;;;;;;5131772;27;20436;-58
2023/10/26 08:20:42;;;;;;;0.80;0.20;;;12.00;99.90;;;;;;5135004;27;20430;-54
2023/10/26 08:23:09;;;;;;;0.50;0.20;;;12.10;99.90;;;;;;5133943;27;20447;-58
2023/10/26 08:25:36;;;;;;;0.50;0.30;;;12.10;99.90;;;;;;5134699;27;20424;-58
2023/10/26 08:28:04;;;;;;;0.60;0.30;;;12.10;99.90;;;;;;5134983;27;20494;-58
2023/10/26 08:30:31;;;;;;;0.70;0.30;;;12.10;99.90;;;;;;5123305;27;20441;-58
2023/10/26 08:32:59;;;;;;;0.50;0.20;;;12.00;99.90;;;;;;5132628;27;20426;-58
2023/10/26 08:35:26;;;;;;;0.40;0.20;;;12.10;99.90;;;;;;5132681;27;20438;-58
2023/10/26 08:37:53;;;;;;;0.50;0.20;;;12.20;99.90;;;;;;5132577;27;20426;-58
2023/10/26 08:40:21;;;;;;;0.40;0.20;;;12.20;99.90;;;;;;5113652;28;20447;-58
2023/10/26 08:42:48;;;;;;;0.60;0.30;;;12.30;99.90;;;;;;5127761;27;20472;-57
2023/10/26 08:45:22;;;;;;;0.40;0.20;;;12.20;99.90;;;;;;5131277;27;20456;-58
2023/10/26 08:47:50;;;;;;;0.50;0.30;;;12.20;99.90;;;;;;5133534;27;20436;-57
2023/10/26 08:50:21;;;;;;;0.70;0.30;;;12.10;99.90;;;;;;5134121;27;20438;-58
2023/10/26 08:52:48;;;;;;;1.60;0.40;;;12.30;99.90;;;;;;5136789;27;20594;-58
2023/10/26 08:55:16;;;;;;;0.70;0.40;;;12.30;99.90;;;;;;5132072;27;20423;-58
2023/10/26 08:57:50;;;;;;;0.80;0.30;;;12.40;99.90;;;;;;5130883;27;20525;-58
2023/10/26 09:00:17;;;;;;;0.50;0.20;;;12.40;99.90;;;;;;5130540;27;20426;-58
2023/10/26 09:02:45;;;;;;;2.10;0.50;;;12.50;99.90;;;;;;5133518;27;20430;-58
2023/10/26 09:05:12;;;;;;;1.30;0.30;;;12.50;99.90;;;;;;5128677;27;20426;-58
2023/10/26 09:07:40;;;;;;;1.70;0.30;;;12.50;99.90;;;;;;5131442;27;20438;-58
2023/10/26 09:10:08;;;;;;;0.60;0.20;;;12.60;99.90;;;;;;5128272;27;20440;-57
2023/10/26 09:12:35;;;;;;;1.00;0.40;;;12.80;99.90;;;;;;5132008;27;20943;-57
2023/10/26 09:15:03;;;;;;;0.60;0.40;;;12.80;99.90;;;;;;5128328;27;20772;-58
2023/10/26 09:17:31;;;;;;;0.90;0.30;;;12.70;99.90;;;;;;5126116;27;20500;-56
2023/10/26 09:19:59;;;;;;;0.50;0.30;;;12.80;99.90;;;;;;5122849;27;20878;-57
2023/10/26 09:22:36;;;;;;;0.50;0.30;;;12.70;99.90;;;;;;5129542;27;20434;-58
2023/10/26 09:25:13;;;;;;;0.60;0.30;;;12.70;99.90;;;;;;5125425;27;20427;-57
2023/10/26 09:27:41;;;;;;;0.50;0.30;;;12.70;99.90;;;;;;5128665;27;20925;-58
2023/10/26 09:30:23;;;;;;;0.40;0.20;;;12.70;99.90;;;;;;5131946;27;20446;-58
2023/10/26 09:32:50;;;;;;;0.50;0.30;;;12.70;99.90;;;;;;5127992;27;20462;-59
2023/10/26 09:35:26;;;;;;;0.40;0.20;;;12.60;99.90;;;;;;5131770;27;20785;-59
2023/10/26 09:37:53;;;;;;;0.50;0.30;;;12.60;99.90;;;;;;5129774;27;20434;-57
2023/10/26 09:40:22;;;;;;;0.77;0.30;;;12.60;99.90;;;;;;5129925;27;20426;-57
2023/10/26 09:42:50;;;;;;;0.50;0.30;;;12.50;99.90;;;;;;5131678;27;20426;-58
2023/10/26 09:45:18;;;;;;;0.80;0.20;;;12.40;99.90;;;;;;5133826;27;20730;-54
2023/10/26 09:47:46;;;;;;;0.70;0.30;;;12.30;99.90;;;;;;5125996;27;20458;-58
2023/10/26 09:50:14;;;;;;;0.80;0.30;;;12.30;99.90;;;;;;5124429;27;20434;-57
2023/10/26 09:52:43;;;;;;;0.60;0.40;;;12.20;99.90;;;;;;5129781;27;20430;-57
2023/10/26 09:55:11;;;;;;;0.80;0.30;;;12.10;99.90;;;;;;5131051;27;20487;-58
2023/10/26 09:57:46;;;;;;;0.68;0.30;;;12.10;99.90;;;;;;5124983;27;20559;-58
2023/10/26 10:00:14;;;;;;;0.50;0.30;;;12.10;99.90;;;;;;5129969;27;20602;-58
2023/10/26 10:02:41;;;;;;;0.60;0.30;;;12.10;99.90;;;;;;5126520;27;20430;-58
2023/10/26 10:05:37;;;;;;;1.20;0.30;;;12.00;99.90;;;;;;5129199;27;20877;-58
2023/10/26 10:08:04;;;;;;;1.20;0.40;;;12.00;99.90;;;;;;5124437;27;20502;-58
2023/10/26 10:10:31;;;;;;;0.60;0.40;;;12.00;99.90;;;;;;5132034;27;20787;-58
2023/10/26 10:13:01;;;;;;;0.70;0.50;;;11.90;99.90;;;;;;5132575;27;20791;-59
2023/10/26 10:15:34;;;;;;;1.60;0.50;;;11.90;99.90;;;;;;5120166;27;20440;-56
2023/10/26 10:18:05;;;;;;;0.90;0.50;;;11.90;99.90;;;;;;5120697;27;20524;-56
2023/10/26 10:20:34;;;;;;;0.70;0.40;;;12.10;99.90;;;;;;5130586;27;20422;-57
2023/10/26 10:23:02;;;;;;;0.80;0.50;;;12.30;99.90;;;;;;5128040;27;20466;-58
2023/10/26 10:25:56;;;;;;;0.75;0.30;;;12.40;99.90;;;;;;5133881;27;20483;-58
2023/10/26 10:28:24;;;;;;;1.50;0.70;;;12.30;99.90;;;;;;5133196;27;20430;-58
2023/10/26 10:30:57;;;;;;;1.35;0.60;;;12.30;99.90;;;;;;5133246;27;20430;-58
2023/10/26 10:33:26;;;;;;;1.30;0.60;;;12.20;99.90;;;;;;5133679;27;21009;-59
2023/10/26 10:36:00;;;;;;;1.20;0.60;;;12.30;99.90;;;;;;5133760;27;20422;-58
2023/10/26 10:38:28;;;;;;;1.60;0.80;;;12.40;99.90;;;;;;5132064;27;20475;-58
2023/10/26 10:41:09;;;;;;;1.58;0.60;;;12.40;99.90;;;;;;5129704;27;20783;-58
2023/10/26 10:43:40;;;;;;;1.30;0.70;;;12.40;99.90;;;;;;5131970;27;20434;-58
2023/10/26 10:46:14;;;;;;;1.70;0.68;;;12.40;99.90;;;;;;5133296;27;20834;-58
2023/10/26 10:49:01;;;;;;;1.10;0.60;;;12.30;99.90;;;;;;5133168;27;20435;-58
2023/10/26 10:51:35;;;;;;;1.52;0.50;;;12.40;99.90;;;;;;5132734;27;20437;-58
2023/10/26 10:54:04;;;;;;;1.92;0.75;;;12.40;99.90;;;;;;5134485;27;20806;-58
2023/10/26 10:56:37;;;;;;;1.38;0.70;;;12.50;99.90;;;;;;5132438;27;20426;-57
2023/10/26 10:59:18;;;;;;;1.03;0.70;;;12.50;99.90;;;;;;5111609;28;20511;-58
2023/10/26 11:01:45;;;;;;;1.30;0.60;;;12.50;99.90;;;;;;5116235;27;20850;-58
2023/10/26 11:04:14;;;;;;;1.40;0.60;;;12.40;99.90;;;;;;5127704;27;20455;-58
2023/10/26 11:06:47;;;;;;;1.20;0.80;;;12.30;99.90;;;;;;5131935;27;20841;-58
2023/10/26 11:09:25;;;;;;;1.00;0.60;;;12.30;99.90;;;;;;5130919;27;20426;-58
2023/10/26 11:11:53;;;;;;;1.60;0.70;;;12.30;99.90;;;;;;5133370;27;20426;-58
2023/10/26 11:14:21;;;;;;;0.80;0.60;;;12.50;99.90;;;;;;5133052;27;20442;-58
2023/10/26 11:16:49;;;;;;;1.30;0.60;;;12.60;99.90;;;;;;5130700;27;20426;-58
2023/10/26 11:19:16;;;;;;;0.80;0.65;;;12.70;99.90;;;;;;5130355;27;20917;-58
2023/10/26 11:21:44;;;;;;;0.90;0.60;;;12.80;99.90;;;;;;5129264;27;20434;-58
2023/10/26 11:24:11;;;;;;;1.00;0.60;;;12.80;99.90;;;;;;5130458;27;20738;-58
2023/10/26 11:26:39;;;;;;;0.90;0.60;;;12.90;99.90;;;;;;5132133;27;21056;-58
2023/10/26 11:29:06;;;;;;;0.90;0.50;;;12.80;99.90;;;;;;5131210;27;20422;-58
2023/10/26 11:31:41;;;;;;;0.98;0.60;;;12.90;99.90;;;;;;5131673;27;20464;-58
2023/10/26 11:34:09;;;;;;;0.80;0.50;;;13.00;99.90;;;;;;5131638;27;20429;-58
2023/10/26 11:36:37;;;;;;;1.30;0.60;;;13.10;99.90;;;;;;5130019;27;20436;-58
2023/10/26 11:39:05;;;;;;;0.90;0.60;;;13.00;99.90;;;;;;5122795;28;20523;-58
2023/10/26 11:41:34;;;;;;;0.90;0.60;;;12.90;99.90;;;;;;5114225;28;20724;-59
2023/10/26 11:44:01;;;;;;;0.90;0.60;;;12.90;99.90;;;;;;5128803;27;20453;-59
2023/10/26 11:46:33;;;;;;;0.80;0.60;;;12.80;99.90;;;;;;5125381;28;20445;-59
2023/10/26 11:49:03;;;;;;;1.10;0.60;;;12.90;99.90;;;;;;5129672;27;20414;-59
2023/10/26 11:51:30;;;;;;;1.65;0.70;;;13.10;99.90;;;;;;5130105;27;20581;-59
2023/10/26 11:53:58;;;;;;;1.90;0.70;;;13.20;99.90;;;;;;5131438;27;20487;-59
2023/10/26 11:56:26;;;;;;;1.20;0.50;;;13.20;99.90;;;;;;5132143;27;20573;-59
2023/10/26 11:58:53;;;;;;;1.00;0.60;;;13.30;99.90;;;;;;5133531;27;20431;-59
2023/10/26 12:01:20;;;;;;;0.90;0.60;;;13.40;99.90;;;;;;5128182;27;20442;-59
2023/10/26 12:03:47;;;;;;;2.97;0.65;;;13.40;99.90;;;;;;5131200;27;20433;-59
2023/10/26 12:06:16;;;;;;;0.90;0.70;;;13.50;99.90;;;;;;5134020;27;20518;-60
2023/10/26 12:08:43;;;;;;;1.60;0.80;;;13.60;99.90;;;;;;5129135;27;20492;-59
2023/10/26 12:11:11;;;;;;;1.80;0.80;;;13.50;99.90;;;;;;5124175;27;20420;-59
2023/10/26 12:13:39;;;;;;;1.27;0.80;;;13.60;99.90;;;;;;5119339;27;20418;-59
2023/10/26 12:16:06;;;;;;;1.20;0.80;;;13.60;99.90;;;;;;5134744;27;20471;-60
2023/10/26 12:18:35;;;;;;;1.00;0.80;;;13.70;99.90;;;;;;5133989;27;20647;-60
2023/10/26 12:21:02;;;;;;;1.08;0.80;;;13.80;99.90;;;;;;5132131;27;20738;-59
2023/10/26 12:23:31;;;;;;;0.90;0.60;;;13.90;99.90;;;;;;5134609;27;20441;-59
2023/10/26 12:25:58;;;;;;;1.40;0.50;;;14.20;99.90;;;;;;5134963;27;20648;-60
2023/10/26 12:28:25;;;;;;;1.20;0.60;;;14.30;99.90;;;;;;5133146;27;20483;-60
2023/10/26 12:30:53;;;;;;;0.80;0.60;;;14.60;99.90;;;;;;5133174;27;20422;-60
2023/10/26 12:33:20;;;;;;;0.80;0.50;;;14.80;99.90;;;;;;5132796;27;20517;-60
2023/10/26 12:35:47;;;;;;;1.10;0.60;;;14.90;99.90;;;;;;5133927;27;20483;-59
2023/10/26 12:38:14;;;;;;;0.80;0.60;;;15.10;99.90;;;;;;5134227;27;20466;-60
2023/10/26 12:40:42;;;;;;;1.20;0.60;;;15.00;99.90;;;;;;5133588;27;20556;-60
2023/10/26 12:43:09;;;;;;;1.23;0.60;;;15.00;99.90;;;;;;5135515;27;20853;-60
2023/10/26 12:45:37;;;;;;;2.00;0.80;;;14.90;99.90;;;;;;5136507;27;20779;-59
2023/10/26 12:48:04;;;;;;;1.50;0.70;;;14.80;99.90;;;;;;5136579;27;20422;-60
2023/10/26 12:50:31;;;;;;;1.10;0.60;;;14.60;99.90;;;;;;5136689;27;20486;-60
2023/10/26 12:52:58;;;;;;;0.90;0.60;;;14.50;99.90;;;;;;5133775;27;20477;-60